sensor_id;sensor_type;location;lat;lon;timestamp;pressure;altitude;pressure_sealevel;temperature;humidity
78857;BME280;68207;50.078;19.936;2023-09-07T00:01:44;99897.32;;;16.94;61.41
78857;BME280;68207;50.078;19.936;2023-09-07T00:04:09;99896.69;;;16.90;61.49
78857;BME280;68207;50.078;19.936;2023-09-07T00:06:35;99899.06;;;16.85;61.60
78857;BME280;68207;50.078;19.936;2023-09-07T00:09:02;99897.51;;;16.82;61.54
78857;BME280;68207;50.078;19.936;2023-09-07T00:11:27;99903.02;;;16.77;61.54
78857;BME280;68207;50.078;19.936;2023-09-07T00:13:53;99903.23;;;16.74;61.61
78857;BME280;68207;50.078;19.936;2023-09-07T00:16:18;99904.88;;;16.71;61.84
78857;BME280;68207;50.078;19.936;2023-09-07T00:18:43;99903.42;;;16.67;61.95
78857;BME280;68207;50.078;19.936;2023-09-07T00:21:09;99896.64;;;16.61;62.06
78857;BME280;68207;50.078;19.936;2023-09-07T00:23:34;99898.42;;;16.57;62.17
78857;BME280;68207;50.078;19.936;2023-09-07T00:25:59;99898.84;;;16.52;62.29
78857;BME280;68207;50.078;19.936;2023-09-07T00:28:24;99899.42;;;16.48;62.28
78857;BME280;68207;50.078;19.936;2023-09-07T00:30:50;99896.58;;;16.47;62.35
78857;BME280;68207;50.078;19.936;2023-09-07T00:33:15;99899.41;;;16.47;62.39
78857;BME280;68207;50.078;19.936;2023-09-07T00:35:41;99902.21;;;16.45;62.70
78857;BME280;68207;50.078;19.936;2023-09-07T00:38:06;99901.83;;;16.44;62.87
78857;BME280;68207;50.078;19.936;2023-09-07T00:40:31;99904.64;;;16.41;62.81
78857;BME280;68207;50.078;19.936;2023-09-07T00:42:58;99905.03;;;16.39;63.00
78857;BME280;68207;50.078;19.936;2023-09-07T00:45:23;99907.95;;;16.36;63.05
78857;BME280;68207;50.078;19.936;2023-09-07T00:47:49;99907.03;;;16.32;63.29
78857;BME280;68207;50.078;19.936;2023-09-07T00:50:14;99904.53;;;16.27;63.43
78857;BME280;68207;50.078;19.936;2023-09-07T00:52:45;99909.70;;;16.22;63.53
78857;BME280;68207;50.078;19.936;2023-09-07T00:55:12;99909.19;;;16.18;63.65
78857;BME280;68207;50.078;19.936;2023-09-07T00:57:37;99908.94;;;16.14;63.66
78857;BME280;68207;50.078;19.936;2023-09-07T01:00:05;99909.92;;;16.12;63.74
78857;BME280;68207;50.078;19.936;2023-09-07T01:02:32;-1.00;;;-128.00;-1.00
78857;BME280;68207;50.078;19.936;2023-09-07T01:04:58;-1.00;;;-128.00;-1.00
78857;BME280;68207;50.078;19.936;2023-09-07T01:07:31;-1.00;;;-128.00;-1.00
78857;BME280;68207;50.078;19.936;2023-09-07T01:09:59;-1.00;;;-128.00;-1.00
78857;BME280;68207;50.078;19.936;2023-09-07T01:12:26;-1.00;;;-128.00;-1.00
78857;BME280;68207;50.078;19.936;2023-09-07T01:14:52;-1.00;;;-128.00;-1.00
78857;BME280;68207;50.078;19.936;2023-09-07T01:17:18;-1.00;;;-128.00;-1.00
78857;BME280;68207;50.078;19.936;2023-09-07T01:19:44;-1.00;;;-128.00;-1.00
78857;BME280;68207;50.078;19.936;2023-09-07T01:22:09;-1.00;;;-128.00;-1.00
78857;BME280;68207;50.078;19.936;2023-09-07T01:24:37;-1.00;;;-128.00;-1.00
78857;BME280;68207;50.078;19.936;2023-09-07T01:27:04;-1.00;;;-128.00;-1.00
78857;BME280;68207;50.078;19.936;2023-09-07T01:29:33;-1.00;;;-128.00;-1.00
78857;BME280;68207;50.078;19.936;2023-09-07T01:31:59;-1.00;;;-128.00;-1.00
78857;BME280;68207;50.078;19.936;2023-09-07T01:34:24;-1.00;;;-128.00;-1.00
78857;BME280;68207;50.078;19.936;2023-09-07T01:36:50;-1.00;;;-128.00;-1.00
78857;BME280;68207;50.078;19.936;2023-09-07T01:39:15;-1.00;;;-128.00;-1.00
78857;BME280;68207;50.078;19.936;2023-09-07T01:41:42;-1.00;;;-128.00;-1.00
78857;BME280;68207;50.078;19.936;2023-09-07T01:44:07;-1.00;;;-128.00;-1.00
78857;BME280;68207;50.078;19.936;2023-09-07T01:46:33;-1.00;;;-128.00;-1.00
78857;BME280;68207;50.078;19.936;2023-09-07T01:49:07;-1.00;;;-128.00;-1.00
78857;BME280;68207;50.078;19.936;2023-09-07T01:51:32;-1.00;;;-128.00;-1.00
78857;BME280;68207;50.078;19.936;2023-09-07T01:54:01;-1.00;;;-128.00;-1.00
78857;BME280;68207;50.078;19.936;2023-09-07T01:56:27;-1.00;;;-128.00;-1.00
78857;BME280;68207;50.078;19.936;2023-09-07T01:58:53;-1.00;;;-128.00;-1.00
78857;BME280;68207;50.078;19.936;2023-09-07T02:01:25;-1.00;;;-128.00;-1.00
78857;BME280;68207;50.078;19.936;2023-09-07T02:03:51;-1.00;;;-128.00;-1.00
78857;BME280;68207;50.078;19.936;2023-09-07T02:06:19;-1.00;;;-128.00;-1.00
78857;BME280;68207;50.078;19.936;2023-09-07T02:08:45;-1.00;;;-128.00;-1.00
78857;BME280;68207;50.078;19.936;2023-09-07T02:11:10;-1.00;;;-128.00;-1.00
78857;BME280;68207;50.078;19.936;2023-09-07T02:13:36;-1.00;;;-128.00;-1.00
78857;BME280;68207;50.078;19.936;2023-09-07T02:18:42;-1.00;;;-128.00;-1.00
78857;BME280;68207;50.078;19.936;2023-09-07T02:27:04;-1.00;;;-128.00;-1.00
78857;BME280;68207;50.078;19.936;2023-09-07T02:29:30;-1.00;;;-128.00;-1.00
78857;BME280;68207;50.078;19.936;2023-09-07T02:31:55;-1.00;;;-128.00;-1.00
78857;BME280;68207;50.078;19.936;2023-09-07T02:34:22;-1.00;;;-128.00;-1.00
78857;BME280;68207;50.078;19.936;2023-09-07T02:36:47;-1.00;;;-128.00;-1.00
78857;BME280;68207;50.078;19.936;2023-09-07T02:39:15;-1.00;;;-128.00;-1.00
78857;BME280;68207;50.078;19.936;2023-09-07T02:41:40;-1.00;;;-128.00;-1.00
78857;BME280;68207;50.078;19.936;2023-09-07T02:44:06;-1.00;;;-128.00;-1.00
78857;BME280;68207;50.078;19.936;2023-09-07T02:46:31;-1.00;;;-128.00;-1.00
78857;BME280;68207;50.078;19.936;2023-09-07T02:48:57;-1.00;;;-128.00;-1.00
78857;BME280;68207;50.078;19.936;2023-09-07T02:51:23;-1.00;;;-128.00;-1.00
78857;BME280;68207;50.078;19.936;2023-09-07T02:53:50;-1.00;;;-128.00;-1.00
78857;BME280;68207;50.078;19.936;2023-09-07T02:56:16;-1.00;;;-128.00;-1.00
78857;BME280;68207;50.078;19.936;2023-09-07T02:58:44;-1.00;;;-128.00;-1.00
78857;BME280;68207;50.078;19.936;2023-09-07T03:01:10;-1.00;;;-128.00;-1.00
78857;BME280;68207;50.078;19.936;2023-09-07T03:03:36;-1.00;;;-128.00;-1.00
78857;BME280;68207;50.078;19.936;2023-09-07T03:06:13;-1.00;;;-128.00;-1.00
78857;BME280;68207;50.078;19.936;2023-09-07T03:08:45;-1.00;;;-128.00;-1.00
78857;BME280;68207;50.078;19.936;2023-09-07T03:11:14;-1.00;;;-128.00;-1.00
78857;BME280;68207;50.078;19.936;2023-09-07T03:13:40;-1.00;;;-128.00;-1.00
78857;BME280;68207;50.078;19.936;2023-09-07T03:16:28;-1.00;;;-128.00;-1.00
78857;BME280;68207;50.078;19.936;2023-09-07T03:18:55;-1.00;;;-128.00;-1.00
78857;BME280;68207;50.078;19.936;2023-09-07T03:21:21;-1.00;;;-128.00;-1.00
78857;BME280;68207;50.078;19.936;2023-09-07T03:23:51;-1.00;;;-128.00;-1.00
78857;BME280;68207;50.078;19.936;2023-09-07T03:26:17;-1.00;;;-128.00;-1.00
78857;BME280;68207;50.078;19.936;2023-09-07T03:29:20;-1.00;;;-128.00;-1.00
78857;BME280;68207;50.078;19.936;2023-09-07T03:31:48;-1.00;;;-128.00;-1.00
78857;BME280;68207;50.078;19.936;2023-09-07T03:34:17;-1.00;;;-128.00;-1.00
78857;BME280;68207;50.078;19.936;2023-09-07T03:36:42;-1.00;;;-128.00;-1.00
78857;BME280;68207;50.078;19.936;2023-09-07T03:39:08;-1.00;;;-128.00;-1.00
78857;BME280;68207;50.078;19.936;2023-09-07T03:41:53;-1.00;;;-128.00;-1.00
78857;BME280;68207;50.078;19.936;2023-09-07T03:44:19;-1.00;;;-128.00;-1.00
78857;BME280;68207;50.078;19.936;2023-09-07T03:46:45;-1.00;;;-128.00;-1.00
78857;BME280;68207;50.078;19.936;2023-09-07T03:49:10;-1.00;;;-128.00;-1.00
78857;BME280;68207;50.078;19.936;2023-09-07T03:51:35;-1.00;;;-128.00;-1.00
78857;BME280;68207;50.078;19.936;2023-09-07T03:54:04;-1.00;;;-128.00;-1.00
78857;BME280;68207;50.078;19.936;2023-09-07T03:56:49;-1.00;;;-128.00;-1.00
78857;BME280;68207;50.078;19.936;2023-09-07T03:59:15;-1.00;;;-128.00;-1.00
78857;BME280;68207;50.078;19.936;2023-09-07T04:01:59;-1.00;;;-128.00;-1.00
78857;BME280;68207;50.078;19.936;2023-09-07T04:04:25;-1.00;;;-128.00;-1.00
78857;BME280;68207;50.078;19.936;2023-09-07T04:06:50;-1.00;;;-128.00;-1.00
78857;BME280;68207;50.078;19.936;2023-09-07T04:09:15;-1.00;;;-128.00;-1.00
78857;BME280;68207;50.078;19.936;2023-09-07T04:11:41;-1.00;;;-128.00;-1.00
78857;BME280;68207;50.078;19.936;2023-09-07T04:14:09;-1.00;;;-128.00;-1.00
78857;BME280;68207;50.078;19.936;2023-09-07T04:16:35;-1.00;;;-128.00;-1.00
78857;BME280;68207;50.078;19.936;2023-09-07T04:19:00;-1.00;;;-128.00;-1.00
78857;BME280;68207;50.078;19.936;2023-09-07T04:21:26;-1.00;;;-128.00;-1.00
78857;BME280;68207;50.078;19.936;2023-09-07T04:23:52;-1.00;;;-128.00;-1.00
78857;BME280;68207;50.078;19.936;2023-09-07T04:26:17;-1.00;;;-128.00;-1.00
78857;BME280;68207;50.078;19.936;2023-09-07T04:28:42;-1.00;;;-128.00;-1.00
78857;BME280;68207;50.078;19.936;2023-09-07T04:31:10;-1.00;;;-128.00;-1.00
78857;BME280;68207;50.078;19.936;2023-09-07T04:33:36;-1.00;;;-128.00;-1.00
78857;BME280;68207;50.078;19.936;2023-09-07T04:36:09;-1.00;;;-128.00;-1.00
78857;BME280;68207;50.078;19.936;2023-09-07T04:38:35;-1.00;;;-128.00;-1.00
78857;BME280;68207;50.078;19.936;2023-09-07T04:41:10;-1.00;;;-128.00;-1.00
78857;BME280;68207;50.078;19.936;2023-09-07T04:43:40;-1.00;;;-128.00;-1.00
78857;BME280;68207;50.078;19.936;2023-09-07T04:46:08;-1.00;;;-128.00;-1.00
78857;BME280;68207;50.078;19.936;2023-09-07T04:48:33;-1.00;;;-128.00;-1.00
78857;BME280;68207;50.078;19.936;2023-09-07T04:50:59;-1.00;;;-128.00;-1.00
78857;BME280;68207;50.078;19.936;2023-09-07T04:53:25;-1.00;;;-128.00;-1.00
78857;BME280;68207;50.078;19.936;2023-09-07T04:55:50;-1.00;;;-128.00;-1.00
78857;BME280;68207;50.078;19.936;2023-09-07T04:58:16;-1.00;;;-128.00;-1.00
78857;BME280;68207;50.078;19.936;2023-09-07T05:00:41;-1.00;;;-128.00;-1.00
78857;BME280;68207;50.078;19.936;2023-09-07T05:03:07;-1.00;;;-128.00;-1.00
78857;BME280;68207;50.078;19.936;2023-09-07T05:05:32;-1.00;;;-128.00;-1.00
78857;BME280;68207;50.078;19.936;2023-09-07T05:07:58;-1.00;;;-128.00;-1.00
78857;BME280;68207;50.078;19.936;2023-09-07T05:10:23;-1.00;;;-128.00;-1.00
78857;BME280;68207;50.078;19.936;2023-09-07T05:12:57;-1.00;;;-128.00;-1.00
78857;BME280;68207;50.078;19.936;2023-09-07T05:15:23;-1.00;;;-128.00;-1.00
78857;BME280;68207;50.078;19.936;2023-09-07T05:17:48;-1.00;;;-128.00;-1.00
78857;BME280;68207;50.078;19.936;2023-09-07T05:20:14;-1.00;;;-128.00;-1.00
78857;BME280;68207;50.078;19.936;2023-09-07T05:22:39;-1.00;;;-128.00;-1.00
78857;BME280;68207;50.078;19.936;2023-09-07T05:25:06;-1.00;;;-128.00;-1.00
78857;BME280;68207;50.078;19.936;2023-09-07T05:27:34;-1.00;;;-128.00;-1.00
78857;BME280;68207;50.078;19.936;2023-09-07T05:30:00;-1.00;;;-128.00;-1.00
78857;BME280;68207;50.078;19.936;2023-09-07T05:32:28;-1.00;;;-128.00;-1.00
78857;BME280;68207;50.078;19.936;2023-09-07T05:34:53;-1.00;;;-128.00;-1.00
78857;BME280;68207;50.078;19.936;2023-09-07T05:37:19;-1.00;;;-128.00;-1.00
78857;BME280;68207;50.078;19.936;2023-09-07T05:39:44;-1.00;;;-128.00;-1.00
78857;BME280;68207;50.078;19.936;2023-09-07T05:42:10;-1.00;;;-128.00;-1.00
78857;BME280;68207;50.078;19.936;2023-09-07T05:44:36;-1.00;;;-128.00;-1.00
78857;BME280;68207;50.078;19.936;2023-09-07T05:47:01;-1.00;;;-128.00;-1.00
78857;BME280;68207;50.078;19.936;2023-09-07T05:49:27;-1.00;;;-128.00;-1.00
78857;BME280;68207;50.078;19.936;2023-09-07T05:51:53;-1.00;;;-128.00;-1.00
78857;BME280;68207;50.078;19.936;2023-09-07T05:54:19;-1.00;;;-128.00;-1.00
78857;BME280;68207;50.078;19.936;2023-09-07T05:56:44;-1.00;;;-128.00;-1.00
78857;BME280;68207;50.078;19.936;2023-09-07T05:59:09;-1.00;;;-128.00;-1.00
78857;BME280;68207;50.078;19.936;2023-09-07T06:01:34;-1.00;;;-128.00;-1.00
78857;BME280;68207;50.078;19.936;2023-09-07T06:04:00;-1.00;;;-128.00;-1.00
78857;BME280;68207;50.078;19.936;2023-09-07T06:06:25;-1.00;;;-128.00;-1.00
78857;BME280;68207;50.078;19.936;2023-09-07T06:08:51;-1.00;;;-128.00;-1.00
78857;BME280;68207;50.078;19.936;2023-09-07T06:11:16;-1.00;;;-128.00;-1.00
78857;BME280;68207;50.078;19.936;2023-09-07T06:13:42;-1.00;;;-128.00;-1.00
78857;BME280;68207;50.078;19.936;2023-09-07T06:16:07;-1.00;;;-128.00;-1.00
78857;BME280;68207;50.078;19.936;2023-09-07T06:18:32;-1.00;;;-128.00;-1.00
78857;BME280;68207;50.078;19.936;2023-09-07T06:20:58;-1.00;;;-128.00;-1.00
78857;BME280;68207;50.078;19.936;2023-09-07T06:23:23;-1.00;;;-128.00;-1.00
78857;BME280;68207;50.078;19.936;2023-09-07T06:25:49;-1.00;;;-128.00;-1.00
78857;BME280;68207;50.078;19.936;2023-09-07T06:28:15;-1.00;;;-128.00;-1.00
78857;BME280;68207;50.078;19.936;2023-09-07T06:30:41;-1.00;;;-128.00;-1.00
78857;BME280;68207;50.078;19.936;2023-09-07T06:33:07;-1.00;;;-128.00;-1.00
78857;BME280;68207;50.078;19.936;2023-09-07T06:35:33;-1.00;;;-128.00;-1.00
78857;BME280;68207;50.078;19.936;2023-09-07T06:37:59;-1.00;;;-128.00;-1.00
78857;BME280;68207;50.078;19.936;2023-09-07T06:40:24;-1.00;;;-128.00;-1.00
78857;BME280;68207;50.078;19.936;2023-09-07T06:42:51;-1.00;;;-128.00;-1.00
78857;BME280;68207;50.078;19.936;2023-09-07T06:45:16;-1.00;;;-128.00;-1.00
78857;BME280;68207;50.078;19.936;2023-09-07T06:47:42;-1.00;;;-128.00;-1.00
78857;BME280;68207;50.078;19.936;2023-09-07T06:50:11;-1.00;;;-128.00;-1.00
78857;BME280;68207;50.078;19.936;2023-09-07T06:52:36;-1.00;;;-128.00;-1.00
78857;BME280;68207;50.078;19.936;2023-09-07T06:55:01;-1.00;;;-128.00;-1.00
78857;BME280;68207;50.078;19.936;2023-09-07T06:57:27;-1.00;;;-128.00;-1.00
78857;BME280;68207;50.078;19.936;2023-09-07T06:59:52;-1.00;;;-128.00;-1.00
78857;BME280;68207;50.078;19.936;2023-09-07T07:02:18;-1.00;;;-128.00;-1.00
78857;BME280;68207;50.078;19.936;2023-09-07T07:04:43;-1.00;;;-128.00;-1.00
78857;BME280;68207;50.078;19.936;2023-09-07T07:07:10;-1.00;;;-128.00;-1.00
78857;BME280;68207;50.078;19.936;2023-09-07T07:09:36;-1.00;;;-128.00;-1.00
78857;BME280;68207;50.078;19.936;2023-09-07T07:12:02;-1.00;;;-128.00;-1.00
78857;BME280;68207;50.078;19.936;2023-09-07T07:14:27;-1.00;;;-128.00;-1.00
78857;BME280;68207;50.078;19.936;2023-09-07T07:16:52;-1.00;;;-128.00;-1.00
78857;BME280;68207;50.078;19.936;2023-09-07T07:19:18;60011.96;;;-38.60;35.55
78857;BME280;68207;50.078;19.936;2023-09-07T07:21:43;100025.15;;;21.18;58.92
78857;BME280;68207;50.078;19.936;2023-09-07T07:24:09;100026.55;;;21.38;58.02
78857;BME280;68207;50.078;19.936;2023-09-07T07:26:35;100027.04;;;21.58;57.26
78857;BME280;68207;50.078;19.936;2023-09-07T07:29:01;100029.41;;;21.78;56.84
78857;BME280;68207;50.078;19.936;2023-09-07T07:31:28;100024.17;;;22.00;56.32
78857;BME280;68207;50.078;19.936;2023-09-07T07:33:54;100020.04;;;22.24;55.85
78857;BME280;68207;50.078;19.936;2023-09-07T07:36:20;100016.98;;;22.47;54.96
78857;BME280;68207;50.078;19.936;2023-09-07T07:38:45;100019.36;;;22.68;54.84
78857;BME280;68207;50.078;19.936;2023-09-07T07:41:11;100019.52;;;22.93;54.36
78857;BME280;68207;50.078;19.936;2023-09-07T07:43:36;100020.06;;;23.19;53.77
78857;BME280;68207;50.078;19.936;2023-09-07T07:46:01;100019.83;;;23.45;53.20
78857;BME280;68207;50.078;19.936;2023-09-07T07:48:27;100020.31;;;23.72;52.53
78857;BME280;68207;50.078;19.936;2023-09-07T07:50:54;100017.48;;;24.02;51.92
78857;BME280;68207;50.078;19.936;2023-09-07T07:53:19;100018.17;;;24.31;51.22
78857;BME280;68207;50.078;19.936;2023-09-07T07:55:45;100012.89;;;24.62;50.39
78857;BME280;68207;50.078;19.936;2023-09-07T07:58:10;100013.63;;;24.94;49.79
78857;BME280;68207;50.078;19.936;2023-09-07T08:00:36;100017.61;;;25.25;48.85
78857;BME280;68207;50.078;19.936;2023-09-07T08:03:02;100020.02;;;25.55;48.16
78857;BME280;68207;50.078;19.936;2023-09-07T08:05:32;100021.41;;;25.87;47.56
78857;BME280;68207;50.078;19.936;2023-09-07T08:07:57;100022.90;;;26.17;46.41
78857;BME280;68207;50.078;19.936;2023-09-07T08:10:23;100021.60;;;26.40;45.45
78857;BME280;68207;50.078;19.936;2023-09-07T08:12:48;100020.39;;;26.70;45.23
78857;BME280;68207;50.078;19.936;2023-09-07T08:15:16;100018.84;;;26.99;44.35
78857;BME280;68207;50.078;19.936;2023-09-07T08:17:45;100015.65;;;27.28;43.67
78857;BME280;68207;50.078;19.936;2023-09-07T08:20:10;100019.33;;;27.58;43.26
78857;BME280;68207;50.078;19.936;2023-09-07T08:22:36;100017.40;;;27.83;41.81
78857;BME280;68207;50.078;19.936;2023-09-07T08:25:02;100018.35;;;28.04;41.67
78857;BME280;68207;50.078;19.936;2023-09-07T08:27:28;100015.63;;;28.31;41.10
78857;BME280;68207;50.078;19.936;2023-09-07T08:29:53;100014.86;;;28.54;40.11
78857;BME280;68207;50.078;19.936;2023-09-07T08:32:19;100012.23;;;28.78;39.68
78857;BME280;68207;50.078;19.936;2023-09-07T08:34:44;100014.48;;;29.00;39.16
78857;BME280;68207;50.078;19.936;2023-09-07T08:37:10;100017.09;;;29.25;39.01
78857;BME280;68207;50.078;19.936;2023-09-07T08:39:35;100016.52;;;29.49;38.35
78857;BME280;68207;50.078;19.936;2023-09-07T08:42:01;100017.91;;;29.63;37.77
78857;BME280;68207;50.078;19.936;2023-09-07T08:44:28;100016.02;;;29.79;37.86
78857;BME280;68207;50.078;19.936;2023-09-07T08:46:54;100017.65;;;30.01;37.68
78857;BME280;68207;50.078;19.936;2023-09-07T08:49:20;100018.52;;;30.23;37.18
78857;BME280;68207;50.078;19.936;2023-09-07T08:51:45;100017.52;;;30.40;36.62
78857;BME280;68207;50.078;19.936;2023-09-07T08:54:11;100020.17;;;30.62;36.00
78857;BME280;68207;50.078;19.936;2023-09-07T08:56:37;100019.73;;;30.82;35.76
78857;BME280;68207;50.078;19.936;2023-09-07T08:59:02;-1.00;;;-128.00;-1.00
78857;BME280;68207;50.078;19.936;2023-09-07T09:01:29;-1.00;;;-128.00;-1.00
78857;BME280;68207;50.078;19.936;2023-09-07T09:03:57;-1.00;;;-128.00;-1.00
78857;BME280;68207;50.078;19.936;2023-09-07T09:06:22;-1.00;;;-128.00;-1.00
78857;BME280;68207;50.078;19.936;2023-09-07T09:08:57;-1.00;;;-128.00;-1.00
78857;BME280;68207;50.078;19.936;2023-09-07T09:11:24;-1.00;;;-128.00;-1.00
78857;BME280;68207;50.078;19.936;2023-09-07T09:13:51;-1.00;;;-128.00;-1.00
78857;BME280;68207;50.078;19.936;2023-09-07T09:16:17;-1.00;;;-128.00;-1.00
78857;BME280;68207;50.078;19.936;2023-09-07T09:18:56;-1.00;;;-128.00;-1.00
78857;BME280;68207;50.078;19.936;2023-09-07T09:21:23;-1.00;;;-128.00;-1.00
78857;BME280;68207;50.078;19.936;2023-09-07T09:23:52;-1.00;;;-128.00;-1.00
78857;BME280;68207;50.078;19.936;2023-09-07T09:26:18;-1.00;;;-128.00;-1.00
78857;BME280;68207;50.078;19.936;2023-09-07T09:28:44;-1.00;;;-128.00;-1.00
78857;BME280;68207;50.078;19.936;2023-09-07T09:31:10;-1.00;;;-128.00;-1.00
78857;BME280;68207;50.078;19.936;2023-09-07T09:33:38;-1.00;;;-128.00;-1.00
78857;BME280;68207;50.078;19.936;2023-09-07T09:36:05;-1.00;;;-128.00;-1.00
78857;BME280;68207;50.078;19.936;2023-09-07T09:38:31;-1.00;;;-128.00;-1.00
78857;BME280;68207;50.078;19.936;2023-09-07T09:40:58;-1.00;;;-128.00;-1.00
78857;BME280;68207;50.078;19.936;2023-09-07T09:43:24;-1.00;;;-128.00;-1.00
78857;BME280;68207;50.078;19.936;2023-09-07T09:45:50;-1.00;;;-128.00;-1.00
78857;BME280;68207;50.078;19.936;2023-09-07T09:48:19;-1.00;;;-128.00;-1.00
78857;BME280;68207;50.078;19.936;2023-09-07T09:50:46;-1.00;;;-128.00;-1.00
78857;BME280;68207;50.078;19.936;2023-09-07T09:53:14;-1.00;;;-128.00;-1.00
78857;BME280;68207;50.078;19.936;2023-09-07T09:55:44;-1.00;;;-128.00;-1.00
78857;BME280;68207;50.078;19.936;2023-09-07T09:58:09;-1.00;;;-128.00;-1.00
78857;BME280;68207;50.078;19.936;2023-09-07T10:00:35;-1.00;;;-128.00;-1.00
78857;BME280;68207;50.078;19.936;2023-09-07T10:03:08;-1.00;;;-128.00;-1.00
78857;BME280;68207;50.078;19.936;2023-09-07T10:05:40;-1.00;;;-128.00;-1.00
78857;BME280;68207;50.078;19.936;2023-09-07T10:08:14;-1.00;;;-128.00;-1.00
78857;BME280;68207;50.078;19.936;2023-09-07T10:10:41;-1.00;;;-128.00;-1.00
78857;BME280;68207;50.078;19.936;2023-09-07T10:13:07;-1.00;;;-128.00;-1.00
78857;BME280;68207;50.078;19.936;2023-09-07T10:15:33;-1.00;;;-128.00;-1.00
78857;BME280;68207;50.078;19.936;2023-09-07T10:18:14;-1.00;;;-128.00;-1.00
78857;BME280;68207;50.078;19.936;2023-09-07T10:23:15;-1.00;;;-128.00;-1.00
78857;BME280;68207;50.078;19.936;2023-09-07T10:25:40;-1.00;;;-128.00;-1.00
78857;BME280;68207;50.078;19.936;2023-09-07T10:28:05;-1.00;;;-128.00;-1.00
78857;BME280;68207;50.078;19.936;2023-09-07T10:30:31;-1.00;;;-128.00;-1.00
78857;BME280;68207;50.078;19.936;2023-09-07T10:32:58;-1.00;;;-128.00;-1.00
